sensor_id;sensor_type;location;lat;lon;timestamp;P1;durP1;ratioP1;P2;durP2;ratioP2
77109;SDS011;66062;52.464;16.922;2024-02-23T00:01:06;7.55;;;4.45;;
77109;SDS011;66062;52.464;16.922;2024-02-23T00:03:31;9.83;;;4.27;;
77109;SDS011;66062;52.464;16.922;2024-02-23T00:05:58;7.95;;;3.47;;
77109;SDS011;66062;52.464;16.922;2024-02-23T00:08:23;10.90;;;4.43;;
77109;SDS011;66062;52.464;16.922;2024-02-23T00:10:49;7.80;;;4.33;;
77109;SDS011;66062;52.464;16.922;2024-02-23T00:13:14;8.87;;;4.03;;
77109;SDS011;66062;52.464;16.922;2024-02-23T00:15:39;7.70;;;4.47;;
77109;SDS011;66062;52.464;16.922;2024-02-23T00:18:05;6.95;;;3.88;;
77109;SDS011;66062;52.464;16.922;2024-02-23T00:20:31;6.88;;;3.70;;
77109;SDS011;66062;52.464;16.922;2024-02-23T00:22:56;8.37;;;3.87;;
77109;SDS011;66062;52.464;16.922;2024-02-23T00:25:21;9.87;;;4.00;;
77109;SDS011;66062;52.464;16.922;2024-02-23T00:27:48;8.15;;;3.78;;
77109;SDS011;66062;52.464;16.922;2024-02-23T00:30:13;6.53;;;3.57;;
77109;SDS011;66062;52.464;16.922;2024-02-23T00:32:39;6.53;;;3.92;;
77109;SDS011;66062;52.464;16.922;2024-02-23T00:35:04;9.27;;;4.88;;
77109;SDS011;66062;52.464;16.922;2024-02-23T00:37:29;7.38;;;3.25;;
77109;SDS011;66062;52.464;16.922;2024-02-23T00:40:00;6.68;;;3.75;;
77109;SDS011;66062;52.464;16.922;2024-02-23T00:42:25;8.43;;;3.30;;
77109;SDS011;66062;52.464;16.922;2024-02-23T00:44:50;6.15;;;3.63;;
77109;SDS011;66062;52.464;16.922;2024-02-23T00:47:16;5.85;;;3.55;;
77109;SDS011;66062;52.464;16.922;2024-02-23T00:49:41;6.00;;;3.05;;
77109;SDS011;66062;52.464;16.922;2024-02-23T00:52:06;6.37;;;3.43;;
77109;SDS011;66062;52.464;16.922;2024-02-23T00:54:32;5.70;;;3.20;;
77109;SDS011;66062;52.464;16.922;2024-02-23T00:56:57;6.97;;;3.10;;
77109;SDS011;66062;52.464;16.922;2024-02-23T00:59:22;7.03;;;2.60;;
77109;SDS011;66062;52.464;16.922;2024-02-23T01:01:47;4.90;;;2.75;;
77109;SDS011;66062;52.464;16.922;2024-02-23T01:04:13;5.67;;;3.00;;
77109;SDS011;66062;52.464;16.922;2024-02-23T01:06:38;10.30;;;3.50;;
77109;SDS011;66062;52.464;16.922;2024-02-23T01:09:03;4.87;;;3.10;;
77109;SDS011;66062;52.464;16.922;2024-02-23T01:11:29;5.93;;;3.25;;
77109;SDS011;66062;52.464;16.922;2024-02-23T01:13:54;6.33;;;3.90;;
77109;SDS011;66062;52.464;16.922;2024-02-23T01:16:20;6.23;;;3.47;;
77109;SDS011;66062;52.464;16.922;2024-02-23T01:18:45;7.23;;;3.10;;
77109;SDS011;66062;52.464;16.922;2024-02-23T01:21:10;5.80;;;3.20;;
77109;SDS011;66062;52.464;16.922;2024-02-23T01:23:36;5.18;;;2.78;;
77109;SDS011;66062;52.464;16.922;2024-02-23T01:26:01;5.27;;;2.90;;
77109;SDS011;66062;52.464;16.922;2024-02-23T01:28:27;5.18;;;2.53;;
77109;SDS011;66062;52.464;16.922;2024-02-23T01:30:53;5.97;;;3.50;;
77109;SDS011;66062;52.464;16.922;2024-02-23T01:33:18;4.93;;;2.63;;
77109;SDS011;66062;52.464;16.922;2024-02-23T01:35:43;10.07;;;3.20;;
77109;SDS011;66062;52.464;16.922;2024-02-23T01:38:08;6.20;;;3.15;;
77109;SDS011;66062;52.464;16.922;2024-02-23T01:40:34;5.40;;;2.63;;
77109;SDS011;66062;52.464;16.922;2024-02-23T01:43:02;6.77;;;3.30;;
77109;SDS011;66062;52.464;16.922;2024-02-23T01:45:28;5.22;;;2.85;;
77109;SDS011;66062;52.464;16.922;2024-02-23T01:47:54;6.97;;;3.10;;
77109;SDS011;66062;52.464;16.922;2024-02-23T01:50:19;4.47;;;2.30;;
77109;SDS011;66062;52.464;16.922;2024-02-23T01:52:44;4.80;;;2.40;;
77109;SDS011;66062;52.464;16.922;2024-02-23T01:55:10;5.83;;;3.33;;
77109;SDS011;66062;52.464;16.922;2024-02-23T01:57:37;6.35;;;2.58;;
77109;SDS011;66062;52.464;16.922;2024-02-23T02:00:04;4.75;;;3.28;;
77109;SDS011;66062;52.464;16.922;2024-02-23T02:02:30;4.20;;;1.75;;
77109;SDS011;66062;52.464;16.922;2024-02-23T02:04:56;5.43;;;2.17;;
77109;SDS011;66062;52.464;16.922;2024-02-23T02:07:21;4.33;;;2.13;;
77109;SDS011;66062;52.464;16.922;2024-02-23T02:09:47;6.95;;;3.00;;
77109;SDS011;66062;52.464;16.922;2024-02-23T02:12:13;4.90;;;2.17;;
77109;SDS011;66062;52.464;16.922;2024-02-23T02:14:38;2.93;;;1.40;;
77109;SDS011;66062;52.464;16.922;2024-02-23T02:17:03;2.83;;;1.80;;
77109;SDS011;66062;52.464;16.922;2024-02-23T02:19:29;3.72;;;2.00;;
77109;SDS011;66062;52.464;16.922;2024-02-23T02:21:55;5.28;;;1.95;;
77109;SDS011;66062;52.464;16.922;2024-02-23T02:24:20;4.60;;;2.10;;
77109;SDS011;66062;52.464;16.922;2024-02-23T02:26:46;4.13;;;1.90;;
77109;SDS011;66062;52.464;16.922;2024-02-23T02:29:13;4.70;;;2.30;;
77109;SDS011;66062;52.464;16.922;2024-02-23T02:31:38;3.67;;;1.80;;
77109;SDS011;66062;52.464;16.922;2024-02-23T02:34:04;5.80;;;2.17;;
77109;SDS011;66062;52.464;16.922;2024-02-23T02:36:30;4.38;;;2.00;;
77109;SDS011;66062;52.464;16.922;2024-02-23T02:38:55;7.10;;;2.72;;
77109;SDS011;66062;52.464;16.922;2024-02-23T02:41:22;4.07;;;1.88;;
77109;SDS011;66062;52.464;16.922;2024-02-23T02:46:13;4.73;;;1.87;;
77109;SDS011;66062;52.464;16.922;2024-02-23T02:48:38;3.28;;;1.75;;
77109;SDS011;66062;52.464;16.922;2024-02-23T02:51:04;4.03;;;1.90;;
77109;SDS011;66062;52.464;16.922;2024-02-23T02:53:29;5.38;;;2.47;;
77109;SDS011;66062;52.464;16.922;2024-02-23T02:55:55;3.13;;;1.40;;
77109;SDS011;66062;52.464;16.922;2024-02-23T02:58:20;4.10;;;1.50;;
77109;SDS011;66062;52.464;16.922;2024-02-23T03:00:46;3.13;;;1.37;;
77109;SDS011;66062;52.464;16.922;2024-02-23T03:03:11;2.92;;;1.45;;
77109;SDS011;66062;52.464;16.922;2024-02-23T03:05:38;3.45;;;1.30;;
77109;SDS011;66062;52.464;16.922;2024-02-23T03:08:03;3.40;;;1.47;;
77109;SDS011;66062;52.464;16.922;2024-02-23T03:10:28;5.05;;;1.60;;
77109;SDS011;66062;52.464;16.922;2024-02-23T03:12:54;3.17;;;1.20;;
77109;SDS011;66062;52.464;16.922;2024-02-23T03:15:19;2.77;;;1.30;;
77109;SDS011;66062;52.464;16.922;2024-02-23T03:17:44;3.00;;;1.50;;
77109;SDS011;66062;52.464;16.922;2024-02-23T03:20:10;2.95;;;1.55;;
77109;SDS011;66062;52.464;16.922;2024-02-23T03:22:36;3.70;;;1.60;;
77109;SDS011;66062;52.464;16.922;2024-02-23T03:25:05;3.40;;;1.30;;
77109;SDS011;66062;52.464;16.922;2024-02-23T03:27:33;2.83;;;1.20;;
77109;SDS011;66062;52.464;16.922;2024-02-23T03:29:59;3.28;;;1.88;;
77109;SDS011;66062;52.464;16.922;2024-02-23T03:32:24;3.13;;;1.70;;
77109;SDS011;66062;52.464;16.922;2024-02-23T03:34:49;2.47;;;1.45;;
77109;SDS011;66062;52.464;16.922;2024-02-23T03:37:14;2.75;;;1.15;;
77109;SDS011;66062;52.464;16.922;2024-02-23T03:39:40;2.40;;;1.13;;
77109;SDS011;66062;52.464;16.922;2024-02-23T03:42:05;3.13;;;1.20;;
77109;SDS011;66062;52.464;16.922;2024-02-23T03:44:30;2.97;;;1.35;;
77109;SDS011;66062;52.464;16.922;2024-02-23T03:46:56;3.83;;;1.15;;
77109;SDS011;66062;52.464;16.922;2024-02-23T03:49:22;4.97;;;1.33;;
77109;SDS011;66062;52.464;16.922;2024-02-23T03:51:47;3.00;;;1.10;;
77109;SDS011;66062;52.464;16.922;2024-02-23T03:54:12;3.15;;;1.17;;
77109;SDS011;66062;52.464;16.922;2024-02-23T03:56:38;2.90;;;1.10;;
77109;SDS011;66062;52.464;16.922;2024-02-23T03:59:05;2.72;;;1.10;;
77109;SDS011;66062;52.464;16.922;2024-02-23T04:01:30;2.70;;;1.10;;
77109;SDS011;66062;52.464;16.922;2024-02-23T04:03:56;2.03;;;1.13;;
77109;SDS011;66062;52.464;16.922;2024-02-23T04:06:21;2.88;;;1.00;;
77109;SDS011;66062;52.464;16.922;2024-02-23T04:08:47;2.63;;;0.77;;
77109;SDS011;66062;52.464;16.922;2024-02-23T04:11:12;1.80;;;0.60;;
77109;SDS011;66062;52.464;16.922;2024-02-23T04:13:38;2.00;;;0.80;;
77109;SDS011;66062;52.464;16.922;2024-02-23T04:16:03;2.60;;;0.90;;
77109;SDS011;66062;52.464;16.922;2024-02-23T04:18:28;2.03;;;0.85;;
77109;SDS011;66062;52.464;16.922;2024-02-23T04:20:54;2.08;;;0.85;;
77109;SDS011;66062;52.464;16.922;2024-02-23T04:23:19;2.72;;;0.73;;
77109;SDS011;66062;52.464;16.922;2024-02-23T04:25:45;2.63;;;0.80;;
77109;SDS011;66062;52.464;16.922;2024-02-23T04:28:11;1.95;;;0.80;;
77109;SDS011;66062;52.464;16.922;2024-02-23T04:30:36;4.10;;;0.87;;
77109;SDS011;66062;52.464;16.922;2024-02-23T04:33:01;1.50;;;0.47;;
77109;SDS011;66062;52.464;16.922;2024-02-23T04:35:27;2.03;;;0.50;;
77109;SDS011;66062;52.464;16.922;2024-02-23T04:37:52;3.33;;;0.65;;
77109;SDS011;66062;52.464;16.922;2024-02-23T04:40:18;2.42;;;0.90;;
77109;SDS011;66062;52.464;16.922;2024-02-23T04:42:43;2.60;;;0.93;;
77109;SDS011;66062;52.464;16.922;2024-02-23T04:47:35;2.30;;;0.95;;
77109;SDS011;66062;52.464;16.922;2024-02-23T04:50:00;1.95;;;0.47;;
77109;SDS011;66062;52.464;16.922;2024-02-23T04:54:52;3.63;;;0.70;;
77109;SDS011;66062;52.464;16.922;2024-02-23T04:57:18;1.45;;;0.60;;
77109;SDS011;66062;52.464;16.922;2024-02-23T04:59:43;1.02;;;0.65;;
77109;SDS011;66062;52.464;16.922;2024-02-23T05:02:08;1.75;;;0.80;;
77109;SDS011;66062;52.464;16.922;2024-02-23T05:04:34;4.32;;;0.70;;
77109;SDS011;66062;52.464;16.922;2024-02-23T05:06:59;3.17;;;1.50;;
77109;SDS011;66062;52.464;16.922;2024-02-23T05:09:24;2.70;;;0.63;;
77109;SDS011;66062;52.464;16.922;2024-02-23T05:11:50;1.60;;;0.60;;
77109;SDS011;66062;52.464;16.922;2024-02-23T05:14:15;4.20;;;1.65;;
77109;SDS011;66062;52.464;16.922;2024-02-23T05:16:41;2.33;;;0.93;;
77109;SDS011;66062;52.464;16.922;2024-02-23T05:19:06;1.33;;;0.60;;
77109;SDS011;66062;52.464;16.922;2024-02-23T05:21:31;1.65;;;0.65;;
77109;SDS011;66062;52.464;16.922;2024-02-23T05:23:57;2.13;;;0.60;;
77109;SDS011;66062;52.464;16.922;2024-02-23T05:26:22;2.23;;;1.20;;
77109;SDS011;66062;52.464;16.922;2024-02-23T05:28:47;1.58;;;0.63;;
77109;SDS011;66062;52.464;16.922;2024-02-23T05:31:13;1.77;;;0.70;;
77109;SDS011;66062;52.464;16.922;2024-02-23T05:33:38;1.55;;;0.70;;
77109;SDS011;66062;52.464;16.922;2024-02-23T05:36:04;2.38;;;0.75;;
77109;SDS011;66062;52.464;16.922;2024-02-23T05:38:29;1.85;;;0.50;;
77109;SDS011;66062;52.464;16.922;2024-02-23T05:40:55;2.33;;;0.73;;
77109;SDS011;66062;52.464;16.922;2024-02-23T05:43:20;2.13;;;0.60;;
77109;SDS011;66062;52.464;16.922;2024-02-23T05:45:46;1.80;;;0.60;;
77109;SDS011;66062;52.464;16.922;2024-02-23T05:48:11;1.67;;;0.68;;
77109;SDS011;66062;52.464;16.922;2024-02-23T05:50:36;4.78;;;0.60;;
77109;SDS011;66062;52.464;16.922;2024-02-23T05:53:02;3.50;;;0.80;;
77109;SDS011;66062;52.464;16.922;2024-02-23T05:55:29;3.47;;;1.45;;
77109;SDS011;66062;52.464;16.922;2024-02-23T05:57:55;2.90;;;1.02;;
77109;SDS011;66062;52.464;16.922;2024-02-23T06:00:21;2.92;;;1.17;;
77109;SDS011;66062;52.464;16.922;2024-02-23T06:02:46;2.47;;;0.90;;
77109;SDS011;66062;52.464;16.922;2024-02-23T06:05:12;2.75;;;1.15;;
77109;SDS011;66062;52.464;16.922;2024-02-23T06:07:37;2.60;;;0.77;;
77109;SDS011;66062;52.464;16.922;2024-02-23T06:10:03;1.80;;;0.70;;
77109;SDS011;66062;52.464;16.922;2024-02-23T06:12:28;3.17;;;0.90;;
77109;SDS011;66062;52.464;16.922;2024-02-23T06:14:54;2.40;;;0.90;;
77109;SDS011;66062;52.464;16.922;2024-02-23T06:17:21;1.40;;;0.43;;
77109;SDS011;66062;52.464;16.922;2024-02-23T06:19:48;1.48;;;0.45;;
77109;SDS011;66062;52.464;16.922;2024-02-23T06:22:13;2.83;;;1.58;;
77109;SDS011;66062;52.464;16.922;2024-02-23T06:24:40;2.55;;;1.58;;
77109;SDS011;66062;52.464;16.922;2024-02-23T06:27:05;1.98;;;0.80;;
77109;SDS011;66062;52.464;16.922;2024-02-23T06:29:30;3.22;;;0.80;;
77109;SDS011;66062;52.464;16.922;2024-02-23T06:31:56;2.17;;;0.70;;
77109;SDS011;66062;52.464;16.922;2024-02-23T06:34:21;2.55;;;0.95;;
77109;SDS011;66062;52.464;16.922;2024-02-23T06:36:48;2.03;;;0.65;;
77109;SDS011;66062;52.464;16.922;2024-02-23T06:39:13;2.17;;;0.95;;
77109;SDS011;66062;52.464;16.922;2024-02-23T06:41:38;3.15;;;0.50;;
77109;SDS011;66062;52.464;16.922;2024-02-23T06:44:04;1.83;;;0.82;;
77109;SDS011;66062;52.464;16.922;2024-02-23T06:46:29;2.58;;;0.88;;
77109;SDS011;66062;52.464;16.922;2024-02-23T06:48:55;3.70;;;1.33;;
77109;SDS011;66062;52.464;16.922;2024-02-23T06:51:20;2.40;;;0.95;;
77109;SDS011;66062;52.464;16.922;2024-02-23T06:53:46;2.28;;;0.60;;
77109;SDS011;66062;52.464;16.922;2024-02-23T06:56:12;3.25;;;0.55;;
77109;SDS011;66062;52.464;16.922;2024-02-23T06:58:37;2.22;;;0.30;;
77109;SDS011;66062;52.464;16.922;2024-02-23T07:01:04;1.98;;;0.50;;
77109;SDS011;66062;52.464;16.922;2024-02-23T07:03:30;1.75;;;0.82;;
77109;SDS011;66062;52.464;16.922;2024-02-23T07:05:56;1.50;;;0.40;;
77109;SDS011;66062;52.464;16.922;2024-02-23T07:08:22;1.27;;;0.37;;
77109;SDS011;66062;52.464;16.922;2024-02-23T07:10:47;1.50;;;0.60;;
77109;SDS011;66062;52.464;16.922;2024-02-23T07:13:13;1.50;;;0.65;;
77109;SDS011;66062;52.464;16.922;2024-02-23T07:15:39;1.88;;;0.65;;
77109;SDS011;66062;52.464;16.922;2024-02-23T07:18:04;2.00;;;0.40;;
77109;SDS011;66062;52.464;16.922;2024-02-23T07:20:30;1.10;;;0.50;;
77109;SDS011;66062;52.464;16.922;2024-02-23T07:22:56;1.25;;;0.68;;
77109;SDS011;66062;52.464;16.922;2024-02-23T07:25:21;1.52;;;0.38;;
77109;SDS011;66062;52.464;16.922;2024-02-23T07:27:47;0.80;;;0.30;;
77109;SDS011;66062;52.464;16.922;2024-02-23T07:30:14;3.13;;;0.63;;
77109;SDS011;66062;52.464;16.922;2024-02-23T07:32:39;1.20;;;0.38;;
77109;SDS011;66062;52.464;16.922;2024-02-23T07:35:05;2.45;;;0.20;;
77109;SDS011;66062;52.464;16.922;2024-02-23T07:37:30;2.70;;;0.50;;
77109;SDS011;66062;52.464;16.922;2024-02-23T07:39:55;0.50;;;0.20;;
77109;SDS011;66062;52.464;16.922;2024-02-23T07:42:21;1.40;;;0.20;;
77109;SDS011;66062;52.464;16.922;2024-02-23T07:44:46;0.57;;;0.20;;
77109;SDS011;66062;52.464;16.922;2024-02-23T07:47:11;1.00;;;0.52;;
77109;SDS011;66062;52.464;16.922;2024-02-23T07:49:37;1.80;;;0.73;;
77109;SDS011;66062;52.464;16.922;2024-02-23T07:52:03;0.68;;;0.20;;
77109;SDS011;66062;52.464;16.922;2024-02-23T07:54:28;2.33;;;0.28;;
77109;SDS011;66062;52.464;16.922;2024-02-23T07:56:53;0.77;;;0.57;;
77109;SDS011;66062;52.464;16.922;2024-02-23T07:59:19;2.80;;;0.50;;
77109;SDS011;66062;52.464;16.922;2024-02-23T08:01:44;2.53;;;0.68;;
77109;SDS011;66062;52.464;16.922;2024-02-23T08:04:09;1.83;;;0.63;;
77109;SDS011;66062;52.464;16.922;2024-02-23T08:06:35;1.83;;;0.73;;
77109;SDS011;66062;52.464;16.922;2024-02-23T08:09:00;5.13;;;0.50;;
77109;SDS011;66062;52.464;16.922;2024-02-23T08:11:26;3.75;;;0.40;;
77109;SDS011;66062;52.464;16.922;2024-02-23T08:13:51;1.10;;;0.40;;
77109;SDS011;66062;52.464;16.922;2024-02-23T08:16:16;1.37;;;0.30;;
77109;SDS011;66062;52.464;16.922;2024-02-23T08:18:42;3.35;;;0.30;;
77109;SDS011;66062;52.464;16.922;2024-02-23T08:21:07;3.10;;;0.20;;
77109;SDS011;66062;52.464;16.922;2024-02-23T08:23:34;0.80;;;0.32;;
77109;SDS011;66062;52.464;16.922;2024-02-23T08:26:00;1.50;;;0.40;;
77109;SDS011;66062;52.464;16.922;2024-02-23T08:28:25;1.80;;;0.40;;
77109;SDS011;66062;52.464;16.922;2024-02-23T08:30:50;8.45;;;0.93;;
77109;SDS011;66062;52.464;16.922;2024-02-23T08:33:16;1.42;;;0.30;;
77109;SDS011;66062;52.464;16.922;2024-02-23T08:35:41;1.67;;;0.30;;
77109;SDS011;66062;52.464;16.922;2024-02-23T08:38:06;2.30;;;0.60;;
77109;SDS011;66062;52.464;16.922;2024-02-23T08:40:32;1.50;;;0.70;;
77109;SDS011;66062;52.464;16.922;2024-02-23T08:42:57;1.85;;;0.60;;
77109;SDS011;66062;52.464;16.922;2024-02-23T08:45:22;1.70;;;0.40;;
77109;SDS011;66062;52.464;16.922;2024-02-23T08:47:48;1.67;;;0.30;;
77109;SDS011;66062;52.464;16.922;2024-02-23T08:50:13;2.00;;;0.32;;
77109;SDS011;66062;52.464;16.922;2024-02-23T08:52:39;2.25;;;0.98;;
77109;SDS011;66062;52.464;16.922;2024-02-23T08:55:05;2.22;;;0.47;;
77109;SDS011;66062;52.464;16.922;2024-02-23T08:57:30;3.33;;;1.25;;
77109;SDS011;66062;52.464;16.922;2024-02-23T08:59:55;2.65;;;0.50;;
77109;SDS011;66062;52.464;16.922;2024-02-23T09:02:23;3.10;;;0.95;;
77109;SDS011;66062;52.464;16.922;2024-02-23T09:04:48;3.13;;;0.73;;
77109;SDS011;66062;52.464;16.922;2024-02-23T09:07:14;1.57;;;0.50;;
77109;SDS011;66062;52.464;16.922;2024-02-23T09:09:39;3.53;;;0.40;;
77109;SDS011;66062;52.464;16.922;2024-02-23T09:12:05;2.40;;;0.80;;
77109;SDS011;66062;52.464;16.922;2024-02-23T09:14:31;1.30;;;0.38;;
77109;SDS011;66062;52.464;16.922;2024-02-23T09:16:58;2.35;;;0.20;;
77109;SDS011;66062;52.464;16.922;2024-02-23T09:19:23;2.13;;;0.77;;
77109;SDS011;66062;52.464;16.922;2024-02-23T09:21:48;1.27;;;0.30;;
77109;SDS011;66062;52.464;16.922;2024-02-23T09:24:13;3.20;;;0.67;;
77109;SDS011;66062;52.464;16.922;2024-02-23T09:26:39;2.55;;;0.47;;
77109;SDS011;66062;52.464;16.922;2024-02-23T09:29:05;4.78;;;0.65;;
77109;SDS011;66062;52.464;16.922;2024-02-23T09:31:30;2.22;;;0.52;;
77109;SDS011;66062;52.464;16.922;2024-02-23T09:33:56;2.20;;;0.60;;
77109;SDS011;66062;52.464;16.922;2024-02-23T09:36:22;1.75;;;0.82;;
77109;SDS011;66062;52.464;16.922;2024-02-23T09:38:47;2.47;;;0.65;;
77109;SDS011;66062;52.464;16.922;2024-02-23T09:41:20;2.78;;;0.60;;
77109;SDS011;66062;52.464;16.922;2024-02-23T09:43:46;2.17;;;0.35;;
77109;SDS011;66062;52.464;16.922;2024-02-23T09:46:13;5.07;;;1.00;;
77109;SDS011;66062;52.464;16.922;2024-02-23T09:48:39;3.65;;;0.50;;
77109;SDS011;66062;52.464;16.922;2024-02-23T09:51:05;3.95;;;0.77;;
77109;SDS011;66062;52.464;16.922;2024-02-23T09:53:31;3.00;;;0.73;;
77109;SDS011;66062;52.464;16.922;2024-02-23T09:55:57;4.28;;;0.75;;
77109;SDS011;66062;52.464;16.922;2024-02-23T09:58:25;3.70;;;0.60;;
77109;SDS011;66062;52.464;16.922;2024-02-23T10:00:51;2.42;;;0.40;;
77109;SDS011;66062;52.464;16.922;2024-02-23T10:03:17;1.65;;;0.65;;
77109;SDS011;66062;52.464;16.922;2024-02-23T10:05:42;2.77;;;0.50;;
77109;SDS011;66062;52.464;16.922;2024-02-23T10:08:09;1.45;;;0.43;;
77109;SDS011;66062;52.464;16.922;2024-02-23T10:10:35;1.52;;;0.63;;
77109;SDS011;66062;52.464;16.922;2024-02-23T10:13:01;2.13;;;0.55;;
77109;SDS011;66062;52.464;16.922;2024-02-23T10:15:29;1.98;;;0.82;;
77109;SDS011;66062;52.464;16.922;2024-02-23T10:17:56;0.82;;;0.30;;
77109;SDS011;66062;52.464;16.922;2024-02-23T10:20:21;4.38;;;0.90;;
77109;SDS011;66062;52.464;16.922;2024-02-23T10:22:46;2.13;;;0.70;;
77109;SDS011;66062;52.464;16.922;2024-02-23T10:25:12;3.28;;;0.73;;
77109;SDS011;66062;52.464;16.922;2024-02-23T10:27:37;4.43;;;0.90;;
77109;SDS011;66062;52.464;16.922;2024-02-23T10:30:02;2.37;;;0.97;;
77109;SDS011;66062;52.464;16.922;2024-02-23T10:32:29;2.33;;;0.40;;
77109;SDS011;66062;52.464;16.922;2024-02-23T10:34:54;1.77;;;0.40;;
77109;SDS011;66062;52.464;16.922;2024-02-23T10:37:21;1.80;;;0.80;;
77109;SDS011;66062;52.464;16.922;2024-02-23T10:39:47;1.35;;;0.32;;
77109;SDS011;66062;52.464;16.922;2024-02-23T10:42:13;1.63;;;0.70;;
77109;SDS011;66062;52.464;16.922;2024-02-23T10:44:41;1.13;;;0.25;;
77109;SDS011;66062;52.464;16.922;2024-02-23T10:47:07;2.00;;;0.35;;
77109;SDS011;66062;52.464;16.922;2024-02-23T10:49:32;1.67;;;0.43;;
77109;SDS011;66062;52.464;16.922;2024-02-23T10:51:58;3.03;;;0.52;;
77109;SDS011;66062;52.464;16.922;2024-02-23T10:54:23;2.47;;;0.50;;
77109;SDS011;66062;52.464;16.922;2024-02-23T10:56:49;1.38;;;0.70;;
77109;SDS011;66062;52.464;16.922;2024-02-23T10:59:15;3.35;;;1.45;;
77109;SDS011;66062;52.464;16.922;2024-02-23T11:01:46;2.22;;;0.30;;
77109;SDS011;66062;52.464;16.922;2024-02-23T11:04:14;3.03;;;0.73;;
77109;SDS011;66062;52.464;16.922;2024-02-23T11:06:40;1.48;;;0.15;;
77109;SDS011;66062;52.464;16.922;2024-02-23T11:09:08;1.03;;;0.30;;
77109;SDS011;66062;52.464;16.922;2024-02-23T11:11:37;3.85;;;0.43;;
77109;SDS011;66062;52.464;16.922;2024-02-23T11:14:02;2.00;;;0.60;;
77109;SDS011;66062;52.464;16.922;2024-02-23T11:16:28;1.05;;;0.43;;
77109;SDS011;66062;52.464;16.922;2024-02-23T11:19:06;1.95;;;0.60;;
77109;SDS011;66062;52.464;16.922;2024-02-23T11:21:35;1.40;;;0.45;;
77109;SDS011;66062;52.464;16.922;2024-02-23T11:24:02;2.47;;;0.75;;
77109;SDS011;66062;52.464;16.922;2024-02-23T11:26:28;1.45;;;0.50;;
77109;SDS011;66062;52.464;16.922;2024-02-23T11:28:54;0.73;;;0.22;;
77109;SDS011;66062;52.464;16.922;2024-02-23T11:31:22;3.45;;;0.20;;
77109;SDS011;66062;52.464;16.922;2024-02-23T11:33:52;1.25;;;0.40;;
77109;SDS011;66062;52.464;16.922;2024-02-23T11:36:31;1.23;;;0.30;;
77109;SDS011;66062;52.464;16.922;2024-02-23T11:38:58;1.88;;;0.65;;
77109;SDS011;66062;52.464;16.922;2024-02-23T11:41:24;1.27;;;0.30;;
77109;SDS011;66062;52.464;16.922;2024-02-23T11:43:53;3.05;;;0.50;;
77109;SDS011;66062;52.464;16.922;2024-02-23T11:46:19;2.33;;;0.82;;
77109;SDS011;66062;52.464;16.922;2024-02-23T11:48:44;2.03;;;0.52;;
77109;SDS011;66062;52.464;16.922;2024-02-23T11:51:11;1.00;;;0.30;;
77109;SDS011;66062;52.464;16.922;2024-02-23T11:53:37;1.92;;;0.47;;
77109;SDS011;66062;52.464;16.922;2024-02-23T11:56:05;1.70;;;0.30;;
77109;SDS011;66062;52.464;16.922;2024-02-23T11:58:32;3.22;;;0.60;;
77109;SDS011;66062;52.464;16.922;2024-02-23T12:00:57;1.10;;;0.63;;
77109;SDS011;66062;52.464;16.922;2024-02-23T12:03:23;2.05;;;0.55;;
77109;SDS011;66062;52.464;16.922;2024-02-23T12:05:50;4.40;;;0.57;;
77109;SDS011;66062;52.464;16.922;2024-02-23T12:08:15;1.02;;;0.50;;
77109;SDS011;66062;52.464;16.922;2024-02-23T12:10:41;0.80;;;0.28;;
77109;SDS011;66062;52.464;16.922;2024-02-23T12:13:06;2.97;;;0.47;;
77109;SDS011;66062;52.464;16.922;2024-02-23T12:15:33;2.25;;;0.70;;
77109;SDS011;66062;52.464;16.922;2024-02-23T12:17:58;1.30;;;0.30;;
77109;SDS011;66062;52.464;16.922;2024-02-23T12:20:24;2.58;;;0.60;;
77109;SDS011;66062;52.464;16.922;2024-02-23T12:22:49;1.38;;;0.50;;
77109;SDS011;66062;52.464;16.922;2024-02-23T12:25:14;1.42;;;0.65;;
77109;SDS011;66062;52.464;16.922;2024-02-23T12:27:40;1.85;;;0.45;;
77109;SDS011;66062;52.464;16.922;2024-02-23T12:30:05;2.22;;;0.28;;
77109;SDS011;66062;52.464;16.922;2024-02-23T12:32:31;1.63;;;0.50;;
77109;SDS011;66062;52.464;16.922;2024-02-23T12:34:56;3.03;;;0.73;;
77109;SDS011;66062;52.464;16.922;2024-02-23T12:37:21;3.17;;;0.40;;
77109;SDS011;66062;52.464;16.922;2024-02-23T12:39:50;3.35;;;0.52;;
77109;SDS011;66062;52.464;16.922;2024-02-23T12:42:15;0.90;;;0.30;;
77109;SDS011;66062;52.464;16.922;2024-02-23T12:44:40;2.03;;;0.63;;
77109;SDS011;66062;52.464;16.922;2024-02-23T12:47:06;2.28;;;0.43;;
77109;SDS011;66062;52.464;16.922;2024-02-23T12:49:31;1.90;;;0.40;;
77109;SDS011;66062;52.464;16.922;2024-02-23T12:51:56;3.30;;;0.67;;
77109;SDS011;66062;52.464;16.922;2024-02-23T12:54:22;2.42;;;0.70;;
77109;SDS011;66062;52.464;16.922;2024-02-23T12:56:47;1.80;;;0.40;;
77109;SDS011;66062;52.464;16.922;2024-02-23T12:59:12;2.53;;;0.70;;
77109;SDS011;66062;52.464;16.922;2024-02-23T13:01:37;2.63;;;0.70;;
77109;SDS011;66062;52.464;16.922;2024-02-23T13:04:04;5.22;;;1.05;;
77109;SDS011;66062;52.464;16.922;2024-02-23T13:06:37;4.05;;;0.82;;
77109;SDS011;66062;52.464;16.922;2024-02-23T13:09:03;2.33;;;1.05;;
77109;SDS011;66062;52.464;16.922;2024-02-23T13:11:29;1.95;;;0.45;;
77109;SDS011;66062;52.464;16.922;2024-02-23T13:13:54;2.10;;;0.60;;
77109;SDS011;66062;52.464;16.922;2024-02-23T13:16:19;1.87;;;0.70;;
77109;SDS011;66062;52.464;16.922;2024-02-23T13:18:45;2.40;;;0.52;;
77109;SDS011;66062;52.464;16.922;2024-02-23T13:21:12;2.40;;;0.32;;
77109;SDS011;66062;52.464;16.922;2024-02-23T13:23:37;3.55;;;0.75;;
77109;SDS011;66062;52.464;16.922;2024-02-23T13:26:02;1.85;;;0.73;;
77109;SDS011;66062;52.464;16.922;2024-02-23T13:28:28;1.70;;;0.50;;
77109;SDS011;66062;52.464;16.922;2024-02-23T13:30:53;1.80;;;0.50;;
77109;SDS011;66062;52.464;16.922;2024-02-23T13:33:18;4.07;;;1.23;;
77109;SDS011;66062;52.464;16.922;2024-02-23T13:38:10;3.13;;;1.10;;
77109;SDS011;66062;52.464;16.922;2024-02-23T13:40:36;3.03;;;1.00;;
77109;SDS011;66062;52.464;16.922;2024-02-23T13:43:01;2.03;;;0.47;;
77109;SDS011;66062;52.464;16.922;2024-02-23T13:45:26;3.17;;;0.53;;
77109;SDS011;66062;52.464;16.922;2024-02-23T13:47:56;2.55;;;0.80;;
77109;SDS011;66062;52.464;16.922;2024-02-23T13:50:21;2.88;;;0.88;;
77109;SDS011;66062;52.464;16.922;2024-02-23T13:52:47;3.72;;;0.63;;
77109;SDS011;66062;52.464;16.922;2024-02-23T13:55:12;2.53;;;0.43;;
77109;SDS011;66062;52.464;16.922;2024-02-23T13:57:38;1.42;;;0.50;;
77109;SDS011;66062;52.464;16.922;2024-02-23T14:00:04;6.97;;;0.70;;
77109;SDS011;66062;52.464;16.922;2024-02-23T14:02:33;4.90;;;1.17;;
77109;SDS011;66062;52.464;16.922;2024-02-23T14:05:00;2.97;;;1.00;;
77109;SDS011;66062;52.464;16.922;2024-02-23T14:07:28;3.95;;;1.20;;
77109;SDS011;66062;52.464;16.922;2024-02-23T14:09:53;3.35;;;1.40;;
77109;SDS011;66062;52.464;16.922;2024-02-23T14:12:19;3.53;;;1.02;;
77109;SDS011;66062;52.464;16.922;2024-02-23T14:14:44;4.43;;;0.93;;
77109;SDS011;66062;52.464;16.922;2024-02-23T14:17:09;5.50;;;1.00;;
77109;SDS011;66062;52.464;16.922;2024-02-23T14:19:35;5.05;;;0.65;;
77109;SDS011;66062;52.464;16.922;2024-02-23T14:22:00;4.70;;;0.98;;
77109;SDS011;66062;52.464;16.922;2024-02-23T14:24:25;5.75;;;1.00;;
77109;SDS011;66062;52.464;16.922;2024-02-23T14:26:51;2.08;;;0.65;;
77109;SDS011;66062;52.464;16.922;2024-02-23T14:29:16;4.73;;;0.70;;
77109;SDS011;66062;52.464;16.922;2024-02-23T14:31:42;4.10;;;1.65;;
77109;SDS011;66062;52.464;16.922;2024-02-23T14:34:08;3.70;;;0.88;;